Willacoochee, GA (31650)

7:52 AM EST on December 22, 2014 (GMT -0500)
Baymeadows Lake | Change Station
CLOSE
Current Station
Personal Weather Station
Location: Douglas, GA
Elevation: 256 ft
Nearby Weather Stations

Elev 256 ft 31.45 °N, 82.91 °W | Updated 30 seconds ago

Mostly Cloudy
Mostly Cloudy
48.9 °F
Feels Like 47 °F
N
4.3
Wind Variable Wind from NE
Gusts 5.4 mph

Today
High -- | Low -- °F
--% Chance of Precip.
Yesterday
High -- | Low -- °F
Precip. -- in
7:27 AM 5:34 PM
New Moon, 0% visible
Pressure 30.03 in
Visibility 0.5 miles
Clouds Overcast 200 ft
Windchill 47 °F
Dew Point 48 °F
Humidity 98%
Rainfall 0.00 in
Snow Depth Not available.
UV 0 out of 12
Pollen .30 out of 12
Air Quality Not available.
Flu Activity Not available.
METAR KDQH 221235Z AUTO 05005KT 1/2SM FG OVC002 10/09 A3003 RMK AO2

More Conditions Fewer Conditions

Pressure 30.03 in
Visibility 0.5 miles
Clouds Overcast 200 ft
Windchill 47 °F
Dew Point 48 °F
Humidity 98%
Rainfall 0.00 in
Snow Depth Not available.
UV 0 out of 12
Pollen .30 out of 12
Air Quality Not available.
Flu Activity Not available.
METAR KDQH 221235Z AUTO 05005KT 1/2SM FG OVC002 10/09 A3003 RMK AO2

More Conditions Fewer Conditions

10-Day Weather Forecast

Almanac

Astronomy

Dec. 22, 2014 Rise Set
Actual Time
Civil Twilight
Nautical Twilight
Astronomical Twilight
Moon
Length of Visible Light
Length of Day
Tomorrow will be .
, % of the Moon is Illuminated

Today's Extremes

State Highs State Lows

Community

WunderPhotos

Upload Photos

1,779,598 photos uploaded!

WunderBlogs® & News

Nearby

Air Quality

  Air Quality AQ Index Pollutant
Not available.

Snow Depth

Station Depth Elevation

Earthquake Activity

City Distance Mag. Time & Date
Minimum magnitude displayed is 2.5.

Coastal Water Temperatures

Place Temperature

Nearby Weather Stations